TimeEST,TemperatureF,Dew PointF,Humidity,Sea Level PressureIn,VisibilityMPH,Wind Direction,Wind SpeedMPH,Gust SpeedMPH,PrecipitationIn,Events,Conditions,WindDirDegrees,DateUTC
12:10 AM,32.0,27.0,82,29.44,4.0,WNW,23.0,48.3,0.00,Snow,Light Snow,290,2014-01-27 05:10:00
12:53 AM,30.0,21.9,72,29.52,8.0,West,25.3,39.1,0.00,,Overcast,280,2014-01-27 05:53:00
1:10 AM,27.0,21.0,78,29.52,1.8,West,32.2,42.6,0.00,Snow,Light Snow,270,2014-01-27 06:10:00
1:23 AM,25.0,18.0,75,29.54,3.0,West,32.2,44.9,0.00,Snow,Light Snow,270,2014-01-27 06:23:00
1:53 AM,24.1,16.0,71,29.59,7.0,West,29.9,41.4,0.00,,Overcast,270,2014-01-27 06:53:00
2:03 AM,21.9,16.0,78,29.58,1.8,West,26.5,42.6,0.00,Snow,Light Snow,280,2014-01-27 07:03:00
2:33 AM,19.9,17.1,89,29.59,3.0,West,18.4,26.5,0.00,Snow,Light Snow,270,2014-01-27 07:33:00
2:41 AM,19.9,16.0,85,29.60,1.8,West,28.8,36.8,0.00,,Overcast,260,2014-01-27 07:41:00
2:53 AM,19.0,12.9,77,29.64,1.2,West,25.3,36.8,0.00,Snow,Blowing Snow,260,2014-01-27 07:53:00
3:05 AM,19.0,12.0,74,29.64,2.5,West,28.8,38.0,N/A,Snow,Blowing Snow,270,2014-01-27 08:05:00
3:16 AM,17.1,8.1,68,29.66,4.0,West,32.2,42.6,N/A,Snow,Blowing Snow,280,2014-01-27 08:16:00
3:53 AM,15.1,6.1,68,29.73,10.0,West,34.5,44.9,N/A,,Overcast,270,2014-01-27 08:53:00
4:29 AM,12.9,5.0,71,29.76,10.0,West,24.2,34.5,0.00,,Mostly Cloudy,270,2014-01-27 09:29:00
4:51 AM,12.2,3.2,67,29.79,10.0,West,25.3,33.4,0.00,,Partly Cloudy,270,2014-01-27 09:51:00
4:53 AM,12.0,3.9,70,29.82,10.0,West,23.0,33.4,0.00,,Partly Cloudy,270,2014-01-27 09:53:00
5:53 AM,9.0,1.0,70,29.89,10.0,West,23.0,29.9,N/A,,Clear,270,2014-01-27 10:53:00
6:53 AM,6.1,-0.9,73,29.95,10.0,West,21.9,-,N/A,,Clear,260,2014-01-27 11:53:00
7:53 AM,3.0,-2.9,76,30.00,10.0,West,17.3,-,N/A,,Clear,260,2014-01-27 12:53:00
8:53 AM,3.9,-4.0,70,30.05,10.0,West,17.3,-,N/A,,Clear,260,2014-01-27 13:53:00
9:53 AM,5.0,-2.9,70,30.09,10.0,West,18.4,-,N/A,,Clear,270,2014-01-27 14:53:00
10:53 AM,6.1,-2.9,67,30.12,10.0,West,21.9,-,N/A,,Clear,260,2014-01-27 15:53:00
11:53 AM,6.1,-2.9,67,30.13,10.0,West,24.2,-,N/A,,Clear,260,2014-01-27 16:53:00
12:53 PM,6.1,-2.0,69,30.14,10.0,WSW,23.0,-,N/A,,Clear,250,2014-01-27 17:53:00
1:53 PM,6.1,-2.9,67,30.15,10.0,WSW,21.9,-,N/A,,Scattered Clouds,250,2014-01-27 18:53:00
2:45 PM,6.1,-2.9,67,30.12,10.0,West,23.0,-,N/A,,Mostly Cloudy,260,2014-01-27 19:45:00
2:53 PM,6.1,-4.0,63,30.16,10.0,West,21.9,-,N/A,,Mostly Cloudy,260,2014-01-27 19:53:00
3:31 PM,5.0,-4.0,66,30.14,10.0,West,25.3,28.8,N/A,,Scattered Clouds,260,2014-01-27 20:31:00
3:53 PM,3.9,-4.0,70,30.19,10.0,WSW,23.0,27.6,N/A,,Scattered Clouds,250,2014-01-27 20:53:00
4:08 PM,3.9,-5.1,66,30.15,10.0,WSW,19.6,-,N/A,,Mostly Cloudy,250,2014-01-27 21:08:00
4:17 PM,3.9,-6.0,64,30.16,10.0,West,19.6,-,N/A,,Scattered Clouds,260,2014-01-27 21:17:00
4:53 PM,3.0,-7.1,63,30.22,10.0,West,24.2,-,N/A,,Clear,260,2014-01-27 21:53:00
5:53 PM,-0.0,-9.0,66,30.24,10.0,West,19.6,-,N/A,,Clear,260,2014-01-27 22:53:00
6:53 PM,-2.0,-9.9,69,30.29,10.0,West,15.0,-,N/A,,Clear,260,2014-01-27 23:53:00
7:53 PM,-2.9,-11.0,68,30.32,10.0,West,13.8,-,N/A,,Clear,260,2014-01-28 00:53:00
8:53 PM,-2.9,-11.9,65,30.34,10.0,West,16.1,-,N/A,,Clear,270,2014-01-28 01:53:00
9:53 PM,-5.1,-13.0,69,30.36,10.0,West,13.8,-,N/A,,Clear,270,2014-01-28 02:53:00
10:53 PM,-7.1,-15.0,68,30.40,10.0,WSW,11.5,-,N/A,,Clear,250,2014-01-28 03:53:00
11:53 PM,-8.0,-15.0,71,30.41,10.0,WSW,12.7,-,N/A,,Clear,250,2014-01-28 04:53:00